Flugwetter

[source: ADDS]
METAR
LOWL 231920Z AUTO VRB01KT 9999 NSC 27/15 Q1019 NOSIG =
TAF LOWL 231715Z 2318/2418 VRB02KT CAVOK TX33/2414Z TN17/2404Z BECMG 2405/2407 08005KT
TAF
TAF LOWL 231715Z 2318/2418 VRB02KT CAVOK TX33/2414Z TN17/2404Z BECMG 2405/2407 08005KT =